Terminal Aerodrome Forecast
Issued by NWS Buffalo, NY

Home | Current Version | Previous Version | Text Only | Print | Product List | Glossary On
Versions: 1 2 3 4 5 6 7 8 9 10 11 12 13 14 15 16 17 18 19 20 21 22 23 24 25 26
000
FTUS41 KBUF 222340
TAFART
TAF
KART 222340Z 2300/2324 04010KT 6SM -FZRA BKN006
      TEMPO 2300/2302 5SM -FZRA BR SCT006 OVC015
     FM230200 05010KT 6SM -FZRA SCT006 BKN015
     FM230400 08006KT P6SM SCT015 BKN080
     FM230630 16008KT 4SM -RA BR OVC035 WS010/19040KT
     FM231400 18006KT 6SM -RA OVC035
     FM231800 20008KT P6SM VCSH OVC025=

USA.gov is the U.S. government's official web portal to all federal, state and local government web resources and services.